메인 페이지
METAR-TAF:

METAR-TAF

공항 :

플로리아노폴리스, 산타카타리나, 브라질

위도: 27-40S, 경도: 048-33W, 고도: 5m

현재 날씨관측

예보는 50분 전, 08:16시(UTC)에 발표되었습니다.
북북서11kt
온도 20°C
습도 88%
기압 1016 hPa
시정: 4000m
고도 2000ft 상공 구름 보통
고도 2500ft 상공 구름 조금, 적란운.
고도 8000ft 상공 구름 많음
뇌우, 강한비,

METAR: SBFL 200816Z 33011KT 4000 +TSRA SCT020 FEW025CB BKN080 20/18 Q1016

시각: 06:06 (09:06 UTC)

예보

예보는 6 시간 6분 전, 03:00시(UTC)에 발표되었습니다.
예보 대상 시간: 20일 06시부터 21일 06시까지 (UTC)
남남동4kt
시정: 8000m
고도 2000ft 상공 구름 많음
일시적
20일 08시부터 20일 12시까지 (UTC)
시정: 4500m
약한비, 박무
일시적
20일 15시부터 20일 21시까지 (UTC)
남남동10kt
전환 중
21일 00시부터 21일 02시까지 (UTC)
시정: 2000m
고도 500ft 상공 구름 많음
박무

TAF: SBFL 200300Z 2006/2106 16004KT 8000 BKN020 TN19/2008Z TX23/2017Z TEMPO 2008/2012 4500 -RA BR TEMPO 2015/2021 16010KT BECMG 2100/2102 2000 BR BKN005 RMK PFO

4,000개 이상의 공항 관측 자료 및 예보 (METAR 및 TAF 보고).

지도상에서 검색 가능한 기상관측소가 노란 점과 빨간 점으로 표시되어 있습니다.

기상관측소 명을 보려면 표시 위로 마우스를 이동하세요.

날씨 관측과 예보를 보려면 클릭하세요.

지도 변경 : 확대하려면 엑스 표시가 있는 녹색 버튼, 축소하려면 빼기 표시가 있는 녹색 버튼, 다음 페이지의 지도를 보려면 녹색 화살표를 클릭하세요.


METAR-TAF: